sensor_id;sensor_type;location;lat;lon;timestamp;P1;durP1;ratioP1;P2;durP2;ratioP2
48881;SDS011;57063;51.406;-2.402;2023-04-07T14:22:15;1.80;;;0.35;;
48881;SDS011;57063;51.406;-2.402;2023-04-07T14:24:40;3.15;;;0.30;;
48881;SDS011;57063;51.406;-2.402;2023-04-07T14:27:12;1.77;;;0.30;;
48881;SDS011;57063;51.406;-2.402;2023-04-07T14:29:58;2.03;;;0.98;;
48881;SDS011;57063;51.406;-2.402;2023-04-07T14:32:29;1.00;;;0.30;;
48881;SDS011;57063;51.406;-2.402;2023-04-07T14:35:00;2.33;;;0.30;;
48881;SDS011;57063;51.406;-2.402;2023-04-07T14:37:27;2.13;;;0.20;;
48881;SDS011;57063;51.406;-2.402;2023-04-07T14:40:07;3.40;;;1.08;;
48881;SDS011;57063;51.406;-2.402;2023-04-07T14:42:39;1.83;;;0.45;;
48881;SDS011;57063;51.406;-2.402;2023-04-07T14:45:10;2.10;;;0.38;;
48881;SDS011;57063;51.406;-2.402;2023-04-07T14:47:59;2.13;;;0.30;;
48881;SDS011;57063;51.406;-2.402;2023-04-07T14:50:33;3.60;;;0.60;;
48881;SDS011;57063;51.406;-2.402;2023-04-07T14:52:59;1.90;;;0.40;;
48881;SDS011;57063;51.406;-2.402;2023-04-07T14:55:30;3.47;;;0.38;;
48881;SDS011;57063;51.406;-2.402;2023-04-07T15:01:30;2.97;;;0.60;;
48881;SDS011;57063;51.406;-2.402;2023-04-07T15:04:05;2.53;;;0.40;;
48881;SDS011;57063;51.406;-2.402;2023-04-07T15:06:41;2.75;;;0.55;;
48881;SDS011;57063;51.406;-2.402;2023-04-07T15:09:13;3.63;;;0.70;;
48881;SDS011;57063;51.406;-2.402;2023-04-07T15:11:53;1.73;;;0.30;;
48881;SDS011;57063;51.406;-2.402;2023-04-07T15:17:35;2.28;;;0.38;;
48881;SDS011;57063;51.406;-2.402;2023-04-07T15:20:03;2.72;;;0.30;;
48881;SDS011;57063;51.406;-2.402;2023-04-07T15:22:45;1.70;;;0.30;;
48881;SDS011;57063;51.406;-2.402;2023-04-07T15:25:23;0.90;;;0.40;;
48881;SDS011;57063;51.406;-2.402;2023-04-07T15:28:09;0.95;;;0.22;;
48881;SDS011;57063;51.406;-2.402;2023-04-07T15:30:38;3.17;;;0.50;;
48881;SDS011;57063;51.406;-2.402;2023-04-07T15:33:49;1.02;;;0.43;;
48881;SDS011;57063;51.406;-2.402;2023-04-07T15:36:43;1.48;;;0.40;;
48881;SDS011;57063;51.406;-2.402;2023-04-07T15:39:09;1.45;;;0.30;;
48881;SDS011;57063;51.406;-2.402;2023-04-07T15:41:41;4.22;;;0.40;;
48881;SDS011;57063;51.406;-2.402;2023-04-07T15:44:15;3.80;;;0.88;;
48881;SDS011;57063;51.406;-2.402;2023-04-07T15:47:10;1.98;;;0.60;;
48881;SDS011;57063;51.406;-2.402;2023-04-07T15:52:58;1.67;;;0.30;;
48881;SDS011;57063;51.406;-2.402;2023-04-07T15:55:56;2.90;;;0.65;;
48881;SDS011;57063;51.406;-2.402;2023-04-07T15:58:24;2.30;;;0.40;;
48881;SDS011;57063;51.406;-2.402;2023-04-07T16:00:55;2.25;;;1.08;;
48881;SDS011;57063;51.406;-2.402;2023-04-07T16:09:37;1.25;;;0.50;;
48881;SDS011;57063;51.406;-2.402;2023-04-07T16:12:15;1.67;;;0.20;;
48881;SDS011;57063;51.406;-2.402;2023-04-07T16:15:05;3.03;;;0.60;;
48881;SDS011;57063;51.406;-2.402;2023-04-07T16:17:47;5.03;;;0.40;;
48881;SDS011;57063;51.406;-2.402;2023-04-07T16:20:25;4.28;;;2.30;;
48881;SDS011;57063;51.406;-2.402;2023-04-07T16:26:33;1.98;;;0.57;;
48881;SDS011;57063;51.406;-2.402;2023-04-07T16:29:19;7.30;;;0.77;;
48881;SDS011;57063;51.406;-2.402;2023-04-07T16:35:33;2.50;;;0.20;;
48881;SDS011;57063;51.406;-2.402;2023-04-07T16:38:01;3.30;;;0.70;;
48881;SDS011;57063;51.406;-2.402;2023-04-07T16:40:55;4.43;;;0.50;;
48881;SDS011;57063;51.406;-2.402;2023-04-07T16:44:11;3.00;;;0.47;;
48881;SDS011;57063;51.406;-2.402;2023-04-07T16:46:40;1.42;;;0.47;;
48881;SDS011;57063;51.406;-2.402;2023-04-07T16:49:16;2.40;;;0.50;;
48881;SDS011;57063;51.406;-2.402;2023-04-07T16:52:10;3.00;;;0.47;;
48881;SDS011;57063;51.406;-2.402;2023-04-07T16:55:06;1.92;;;0.40;;
48881;SDS011;57063;51.406;-2.402;2023-04-07T16:57:45;4.38;;;0.50;;
48881;SDS011;57063;51.406;-2.402;2023-04-07T17:00:19;0.88;;;0.22;;
48881;SDS011;57063;51.406;-2.402;2023-04-07T17:02:50;0.88;;;0.30;;
48881;SDS011;57063;51.406;-2.402;2023-04-07T17:05:16;1.88;;;0.43;;
48881;SDS011;57063;51.406;-2.402;2023-04-07T17:07:54;1.20;;;0.15;;
48881;SDS011;57063;51.406;-2.402;2023-04-07T17:10:37;2.47;;;0.40;;
48881;SDS011;57063;51.406;-2.402;2023-04-07T17:13:44;2.58;;;0.40;;
48881;SDS011;57063;51.406;-2.402;2023-04-07T17:16:53;0.38;;;0.20;;
48881;SDS011;57063;51.406;-2.402;2023-04-07T17:19:35;1.63;;;0.40;;
48881;SDS011;57063;51.406;-2.402;2023-04-07T17:22:24;0.95;;;0.30;;
48881;SDS011;57063;51.406;-2.402;2023-04-07T17:24:52;2.25;;;0.40;;
48881;SDS011;57063;51.406;-2.402;2023-04-07T17:30:14;2.15;;;0.40;;
48881;SDS011;57063;51.406;-2.402;2023-04-07T17:39:44;3.33;;;0.50;;
48881;SDS011;57063;51.406;-2.402;2023-04-07T17:42:11;0.70;;;0.40;;
48881;SDS011;57063;51.406;-2.402;2023-04-07T17:45:33;2.63;;;0.47;;
48881;SDS011;57063;51.406;-2.402;2023-04-07T17:51:01;0.68;;;0.30;;
48881;SDS011;57063;51.406;-2.402;2023-04-07T17:56:52;1.63;;;0.40;;
48881;SDS011;57063;51.406;-2.402;2023-04-07T17:59:40;3.25;;;0.38;;
48881;SDS011;57063;51.406;-2.402;2023-04-07T18:02:38;2.58;;;0.30;;
48881;SDS011;57063;51.406;-2.402;2023-04-07T18:05:35;2.03;;;0.30;;
48881;SDS011;57063;51.406;-2.402;2023-04-07T18:08:12;0.60;;;0.35;;
48881;SDS011;57063;51.406;-2.402;2023-04-07T18:13:08;0.80;;;0.20;;
48881;SDS011;57063;51.406;-2.402;2023-04-07T18:15:51;1.15;;;0.45;;
48881;SDS011;57063;51.406;-2.402;2023-04-07T18:18:29;1.10;;;0.30;;
48881;SDS011;57063;51.406;-2.402;2023-04-07T18:21:40;1.73;;;0.40;;
48881;SDS011;57063;51.406;-2.402;2023-04-07T18:24:13;1.70;;;0.25;;
48881;SDS011;57063;51.406;-2.402;2023-04-07T18:26:56;0.50;;;0.20;;
48881;SDS011;57063;51.406;-2.402;2023-04-07T18:29:33;5.13;;;0.45;;
48881;SDS011;57063;51.406;-2.402;2023-04-07T18:31:59;0.28;;;0.20;;
48881;SDS011;57063;51.406;-2.402;2023-04-07T18:34:40;3.33;;;0.35;;
48881;SDS011;57063;51.406;-2.402;2023-04-07T18:37:20;2.15;;;0.47;;
48881;SDS011;57063;51.406;-2.402;2023-04-07T18:39:54;1.52;;;0.28;;
48881;SDS011;57063;51.406;-2.402;2023-04-07T18:42:52;2.08;;;0.32;;
48881;SDS011;57063;51.406;-2.402;2023-04-07T18:45:54;0.77;;;0.28;;
48881;SDS011;57063;51.406;-2.402;2023-04-07T18:48:26;2.13;;;0.40;;
48881;SDS011;57063;51.406;-2.402;2023-04-07T18:51:02;1.23;;;0.35;;
48881;SDS011;57063;51.406;-2.402;2023-04-07T18:53:34;1.08;;;0.43;;
48881;SDS011;57063;51.406;-2.402;2023-04-07T18:56:11;2.20;;;0.52;;
48881;SDS011;57063;51.406;-2.402;2023-04-07T18:58:41;2.17;;;0.50;;
48881;SDS011;57063;51.406;-2.402;2023-04-07T19:01:18;1.65;;;0.40;;
48881;SDS011;57063;51.406;-2.402;2023-04-07T19:03:44;1.88;;;0.45;;
48881;SDS011;57063;51.406;-2.402;2023-04-07T19:06:13;1.35;;;0.57;;
48881;SDS011;57063;51.406;-2.402;2023-04-07T19:08:42;2.00;;;0.63;;
48881;SDS011;57063;51.406;-2.402;2023-04-07T19:11:08;2.20;;;0.55;;
48881;SDS011;57063;51.406;-2.402;2023-04-07T19:13:36;3.58;;;0.60;;
48881;SDS011;57063;51.406;-2.402;2023-04-07T19:16:13;2.45;;;0.63;;
48881;SDS011;57063;51.406;-2.402;2023-04-07T19:18:44;2.92;;;0.60;;
48881;SDS011;57063;51.406;-2.402;2023-04-07T19:21:18;1.90;;;0.50;;
48881;SDS011;57063;51.406;-2.402;2023-04-07T19:23:54;1.13;;;0.40;;
48881;SDS011;57063;51.406;-2.402;2023-04-07T19:26:23;1.92;;;0.52;;
48881;SDS011;57063;51.406;-2.402;2023-04-07T19:29:03;2.30;;;0.75;;
48881;SDS011;57063;51.406;-2.402;2023-04-07T19:31:40;3.10;;;0.45;;
48881;SDS011;57063;51.406;-2.402;2023-04-07T19:34:23;1.85;;;0.40;;
48881;SDS011;57063;51.406;-2.402;2023-04-07T19:36:51;1.33;;;0.40;;
48881;SDS011;57063;51.406;-2.402;2023-04-07T19:39:22;0.70;;;0.40;;
48881;SDS011;57063;51.406;-2.402;2023-04-07T19:41:49;0.82;;;0.30;;
48881;SDS011;57063;51.406;-2.402;2023-04-07T19:44:22;1.47;;;0.30;;
48881;SDS011;57063;51.406;-2.402;2023-04-07T19:46:58;1.48;;;0.30;;
48881;SDS011;57063;51.406;-2.402;2023-04-07T19:49:27;1.75;;;0.68;;
48881;SDS011;57063;51.406;-2.402;2023-04-07T19:51:56;2.78;;;0.40;;
48881;SDS011;57063;51.406;-2.402;2023-04-07T19:54:24;1.83;;;0.60;;
48881;SDS011;57063;51.406;-2.402;2023-04-07T19:57:05;2.30;;;0.57;;
48881;SDS011;57063;51.406;-2.402;2023-04-07T19:59:40;1.67;;;0.40;;
48881;SDS011;57063;51.406;-2.402;2023-04-07T20:02:18;1.50;;;0.47;;
48881;SDS011;57063;51.406;-2.402;2023-04-07T20:04:52;2.45;;;0.45;;
48881;SDS011;57063;51.406;-2.402;2023-04-07T20:07:21;1.60;;;0.47;;
48881;SDS011;57063;51.406;-2.402;2023-04-07T20:09:55;1.40;;;0.45;;
48881;SDS011;57063;51.406;-2.402;2023-04-07T20:12:30;2.80;;;0.68;;
48881;SDS011;57063;51.406;-2.402;2023-04-07T20:14:59;2.33;;;0.68;;
48881;SDS011;57063;51.406;-2.402;2023-04-07T20:17:30;2.13;;;0.60;;
48881;SDS011;57063;51.406;-2.402;2023-04-07T20:20:07;1.70;;;1.00;;
48881;SDS011;57063;51.406;-2.402;2023-04-07T20:22:34;1.60;;;0.40;;
48881;SDS011;57063;51.406;-2.402;2023-04-07T20:25:12;5.15;;;1.30;;
48881;SDS011;57063;51.406;-2.402;2023-04-07T20:27:43;2.08;;;0.63;;
48881;SDS011;57063;51.406;-2.402;2023-04-07T20:30:14;5.85;;;0.80;;
48881;SDS011;57063;51.406;-2.402;2023-04-07T20:32:45;2.08;;;0.50;;
48881;SDS011;57063;51.406;-2.402;2023-04-07T20:35:19;2.08;;;0.57;;
48881;SDS011;57063;51.406;-2.402;2023-04-07T20:38:13;0.90;;;0.60;;
48881;SDS011;57063;51.406;-2.402;2023-04-07T20:40:42;1.95;;;0.70;;
48881;SDS011;57063;51.406;-2.402;2023-04-07T20:43:18;3.38;;;0.50;;
48881;SDS011;57063;51.406;-2.402;2023-04-07T20:45:54;1.67;;;0.55;;
48881;SDS011;57063;51.406;-2.402;2023-04-07T20:48:25;2.30;;;0.50;;
48881;SDS011;57063;51.406;-2.402;2023-04-07T20:50:56;2.45;;;0.60;;
48881;SDS011;57063;51.406;-2.402;2023-04-07T20:53:38;1.00;;;0.40;;
48881;SDS011;57063;51.406;-2.402;2023-04-07T20:56:09;1.70;;;0.50;;
48881;SDS011;57063;51.406;-2.402;2023-04-07T20:58:51;3.25;;;0.75;;
48881;SDS011;57063;51.406;-2.402;2023-04-07T21:01:24;1.83;;;0.60;;
48881;SDS011;57063;51.406;-2.402;2023-04-07T21:04:25;2.42;;;0.80;;
48881;SDS011;57063;51.406;-2.402;2023-04-07T21:06:53;1.98;;;0.63;;
48881;SDS011;57063;51.406;-2.402;2023-04-07T21:09:24;1.40;;;0.60;;
48881;SDS011;57063;51.406;-2.402;2023-04-07T21:11:57;0.75;;;0.43;;
48881;SDS011;57063;51.406;-2.402;2023-04-07T21:14:25;1.23;;;0.50;;
48881;SDS011;57063;51.406;-2.402;2023-04-07T21:17:00;1.73;;;1.20;;
48881;SDS011;57063;51.406;-2.402;2023-04-07T21:19:29;4.63;;;2.10;;
48881;SDS011;57063;51.406;-2.402;2023-04-07T21:22:05;7.80;;;3.53;;
48881;SDS011;57063;51.406;-2.402;2023-04-07T21:24:30;6.57;;;3.20;;
48881;SDS011;57063;51.406;-2.402;2023-04-07T21:26:59;10.05;;;4.07;;
48881;SDS011;57063;51.406;-2.402;2023-04-07T21:29:32;8.07;;;3.30;;
48881;SDS011;57063;51.406;-2.402;2023-04-07T21:32:00;4.20;;;2.50;;
48881;SDS011;57063;51.406;-2.402;2023-04-07T21:34:29;6.30;;;2.50;;
48881;SDS011;57063;51.406;-2.402;2023-04-07T21:36:55;4.13;;;2.47;;
48881;SDS011;57063;51.406;-2.402;2023-04-07T21:39:20;3.92;;;2.20;;
48881;SDS011;57063;51.406;-2.402;2023-04-07T21:41:48;5.53;;;2.03;;
48881;SDS011;57063;51.406;-2.402;2023-04-07T21:44:21;2.60;;;1.75;;
48881;SDS011;57063;51.406;-2.402;2023-04-07T21:46:50;5.65;;;2.58;;
48881;SDS011;57063;51.406;-2.402;2023-04-07T21:49:16;5.28;;;2.67;;
48881;SDS011;57063;51.406;-2.402;2023-04-07T21:51:49;4.72;;;1.88;;
48881;SDS011;57063;51.406;-2.402;2023-04-07T21:54:26;5.35;;;1.83;;
48881;SDS011;57063;51.406;-2.402;2023-04-07T21:56:55;3.92;;;1.88;;
48881;SDS011;57063;51.406;-2.402;2023-04-07T21:59:23;2.45;;;1.45;;
48881;SDS011;57063;51.406;-2.402;2023-04-07T22:01:48;7.40;;;1.92;;
48881;SDS011;57063;51.406;-2.402;2023-04-07T22:04:19;3.05;;;1.38;;
48881;SDS011;57063;51.406;-2.402;2023-04-07T22:06:45;2.90;;;1.13;;
48881;SDS011;57063;51.406;-2.402;2023-04-07T22:09:14;3.85;;;1.23;;
48881;SDS011;57063;51.406;-2.402;2023-04-07T22:11:41;4.63;;;1.33;;
48881;SDS011;57063;51.406;-2.402;2023-04-07T22:14:10;3.83;;;0.93;;
48881;SDS011;57063;51.406;-2.402;2023-04-07T22:16:40;5.18;;;0.90;;
48881;SDS011;57063;51.406;-2.402;2023-04-07T22:19:08;6.10;;;1.30;;
48881;SDS011;57063;51.406;-2.402;2023-04-07T22:21:34;2.00;;;0.90;;
48881;SDS011;57063;51.406;-2.402;2023-04-07T22:24:00;2.88;;;0.88;;
48881;SDS011;57063;51.406;-2.402;2023-04-07T22:26:25;3.75;;;1.25;;
48881;SDS011;57063;51.406;-2.402;2023-04-07T22:28:51;1.85;;;1.00;;
48881;SDS011;57063;51.406;-2.402;2023-04-07T22:31:19;3.88;;;1.20;;
48881;SDS011;57063;51.406;-2.402;2023-04-07T22:33:48;2.70;;;0.90;;
48881;SDS011;57063;51.406;-2.402;2023-04-07T22:36:16;2.00;;;0.80;;
48881;SDS011;57063;51.406;-2.402;2023-04-07T22:38:47;3.67;;;0.70;;
48881;SDS011;57063;51.406;-2.402;2023-04-07T22:41:15;2.33;;;0.77;;
48881;SDS011;57063;51.406;-2.402;2023-04-07T22:43:40;2.00;;;0.70;;
48881;SDS011;57063;51.406;-2.402;2023-04-07T22:46:06;1.90;;;1.13;;
48881;SDS011;57063;51.406;-2.402;2023-04-07T22:48:35;2.53;;;0.80;;
48881;SDS011;57063;51.406;-2.402;2023-04-07T22:51:00;1.42;;;0.70;;
48881;SDS011;57063;51.406;-2.402;2023-04-07T22:53:32;1.42;;;0.68;;
48881;SDS011;57063;51.406;-2.402;2023-04-07T22:56:00;1.67;;;0.73;;
48881;SDS011;57063;51.406;-2.402;2023-04-07T22:58:32;1.92;;;0.68;;
48881;SDS011;57063;51.406;-2.402;2023-04-07T23:01:00;5.70;;;1.20;;
48881;SDS011;57063;51.406;-2.402;2023-04-07T23:03:28;1.25;;;0.70;;
48881;SDS011;57063;51.406;-2.402;2023-04-07T23:05:57;2.53;;;1.02;;
48881;SDS011;57063;51.406;-2.402;2023-04-07T23:08:26;2.50;;;0.80;;
48881;SDS011;57063;51.406;-2.402;2023-04-07T23:10:57;1.52;;;0.80;;
48881;SDS011;57063;51.406;-2.402;2023-04-07T23:13:25;2.78;;;0.95;;
48881;SDS011;57063;51.406;-2.402;2023-04-07T23:15:59;3.05;;;0.85;;
48881;SDS011;57063;51.406;-2.402;2023-04-07T23:18:37;2.17;;;0.82;;
48881;SDS011;57063;51.406;-2.402;2023-04-07T23:21:03;2.63;;;1.00;;
48881;SDS011;57063;51.406;-2.402;2023-04-07T23:23:34;2.08;;;0.70;;
48881;SDS011;57063;51.406;-2.402;2023-04-07T23:26:06;1.42;;;0.80;;
48881;SDS011;57063;51.406;-2.402;2023-04-07T23:28:32;2.78;;;0.90;;
48881;SDS011;57063;51.406;-2.402;2023-04-07T23:31:00;5.18;;;0.90;;
48881;SDS011;57063;51.406;-2.402;2023-04-07T23:33:30;2.90;;;0.80;;
48881;SDS011;57063;51.406;-2.402;2023-04-07T23:36:01;2.70;;;0.80;;
48881;SDS011;57063;51.406;-2.402;2023-04-07T23:38:34;2.13;;;0.80;;
48881;SDS011;57063;51.406;-2.402;2023-04-07T23:41:04;1.77;;;0.80;;
48881;SDS011;57063;51.406;-2.402;2023-04-07T23:43:30;2.08;;;0.80;;
48881;SDS011;57063;51.406;-2.402;2023-04-07T23:46:06;2.58;;;0.73;;
48881;SDS011;57063;51.406;-2.402;2023-04-07T23:48:35;2.08;;;0.95;;
48881;SDS011;57063;51.406;-2.402;2023-04-07T23:51:03;1.52;;;0.77;;
48881;SDS011;57063;51.406;-2.402;2023-04-07T23:53:29;1.67;;;0.77;;
48881;SDS011;57063;51.406;-2.402;2023-04-07T23:56:00;1.77;;;0.90;;
48881;SDS011;57063;51.406;-2.402;2023-04-07T23:58:31;5.25;;;1.13;;
